Time;durP1;ratioP1;P1;durP2;ratioP2;P2;SDS_P1;SDS_P2;PMS_P1;PMS_P2;Temp;Humidity;BMP_temperature;BMP_pressure;BME280_temperature;BME280_humidity;BME280_pressure;Samples;Min_cycle;Max_cycle;Signal;HPM_P1;HPM_P2
2024/04/27 00:00:33;;;;;;;3.50;0.73;;;;;;;17.93;42.98;98808.69;7389963;19;20500;-64
2024/04/27 00:02:59;;;;;;;0.73;0.73;;;;;;;17.44;43.79;98806.53;7396154;19;20350;-64
2024/04/27 00:05:26;;;;;;;3.05;1.02;;;;;;;17.42;44.19;98797.88;7397810;19;20014;-63
2024/04/27 00:07:52;;;;;;;0.93;0.93;;;;;;;17.52;44.06;98805.91;7397648;19;20451;-63
2024/04/27 00:10:18;;;;;;;0.63;0.63;;;;;;;17.43;43.93;98804.28;7397917;19;20015;-64
2024/04/27 00:12:48;;;;;;;0.98;0.98;;;;;;;17.63;43.89;98806.34;7398108;19;20015;-63
2024/04/27 00:15:15;;;;;;;0.63;0.63;;;;;;;17.81;43.80;98808.22;7397753;19;20014;-64
2024/04/27 00:17:41;;;;;;;0.63;0.63;;;;;;;17.69;43.93;98801.38;7395713;19;20373;-63
2024/04/27 00:20:08;;;;;;;1.35;1.35;;;;;;;17.91;43.01;98809.22;7401910;19;20035;-63
2024/04/27 00:22:34;;;;;;;0.80;0.80;;;;;;;17.96;43.17;98804.75;7396284;19;20095;-63
2024/04/27 00:25:00;;;;;;;0.90;0.90;;;;;;;18.48;42.26;98798.00;7398429;19;20014;-63
2024/04/27 00:27:26;;;;;;;0.85;0.85;;;;;;;18.03;42.68;98802.00;7395560;19;20015;-63
2024/04/27 00:29:52;;;;;;;0.93;0.20;;;;;;;17.39;43.65;98798.97;7399810;19;20472;-64
2024/04/27 00:32:18;;;;;;;0.98;0.70;;;;;;;17.63;43.85;98806.34;7397053;19;20473;-64
2024/04/27 00:34:44;;;;;;;0.73;0.73;;;;;;;17.47;43.79;98804.69;7397587;19;20019;-64
2024/04/27 00:37:11;;;;;;;0.90;0.90;;;;;;;17.11;44.41;98806.53;7396353;19;20022;-63
2024/04/27 00:39:37;;;;;;;1.45;1.27;;;;;;;16.46;45.48;98805.34;7398445;19;20514;-63
2024/04/27 00:42:03;;;;;;;1.20;0.63;;;;;;;16.40;46.21;98796.28;7394266;19;20037;-63
2024/04/27 00:44:29;;;;;;;0.30;0.30;;;;;;;16.74;45.33;98801.25;7397679;19;20143;-63
2024/04/27 00:46:57;;;;;;;3.28;0.73;;;;;;;16.32;46.17;98795.41;7397426;19;20013;-64
2024/04/27 00:49:26;;;;;;;0.68;0.68;;;;;;;16.77;46.06;98777.66;7397662;19;20014;-63
2024/04/27 00:52:01;;;;;;;0.77;0.60;;;;;;;17.09;45.67;98792.28;7396785;19;20026;-63
2024/04/27 00:54:33;;;;;;;2.38;0.82;;;;;;;16.83;46.05;98783.94;7397097;19;20010;-64
2024/04/27 00:56:59;;;;;;;1.42;1.02;;;;;;;16.63;46.33;98791.00;7395973;19;20038;-64
2024/04/27 00:59:25;;;;;;;1.70;0.60;;;;;;;17.89;44.94;98775.22;7396430;19;20010;-64
2024/04/27 01:01:51;;;;;;;1.08;0.60;;;;;;;17.02;46.25;98778.91;7395969;19;20086;-63
2024/04/27 01:04:18;;;;;;;1.15;1.05;;;;;;;16.77;46.46;98783.28;7394636;19;20476;-64
2024/04/27 01:06:44;;;;;;;0.93;0.73;;;;;;;16.44;47.38;98781.88;7396107;19;20014;-64
2024/04/27 01:09:10;;;;;;;1.08;1.00;;;;;;;16.59;47.27;98788.50;7396917;19;20007;-64
2024/04/27 01:11:36;;;;;;;0.88;0.85;;;;;;;16.79;47.28;98780.69;7396036;19;20034;-64
2024/04/27 01:14:02;;;;;;;0.30;0.30;;;;;;;16.74;47.63;98787.19;7396553;19;20078;-63
2024/04/27 01:16:29;;;;;;;3.85;0.68;;;;;;;16.76;47.84;98776.91;7395529;19;20007;-64
2024/04/27 01:18:55;;;;;;;5.18;1.52;;;;;;;16.89;47.43;98784.56;7394792;19;20487;-63
2024/04/27 01:21:21;;;;;;;3.05;1.70;;;;;;;17.34;46.81;98779.41;7395832;19;20010;-63
2024/04/27 01:23:47;;;;;;;1.45;1.15;;;;;;;17.45;46.78;98779.16;7396720;19;20078;-64
2024/04/27 01:26:13;;;;;;;0.57;0.57;;;;;;;17.44;46.95;98766.38;7395516;19;20084;-63
2024/04/27 01:28:39;;;;;;;0.80;0.77;;;;;;;17.17;47.33;98765.72;7395224;19;20018;-64
2024/04/27 01:31:06;;;;;;;0.68;0.68;;;;;;;17.71;47.14;98773.41;7394370;19;20011;-64
2024/04/27 01:33:32;;;;;;;0.68;0.65;;;;;;;17.22;47.55;98772.53;7394679;19;20010;-68
2024/04/27 01:35:58;;;;;;;0.60;0.60;;;;;;;17.27;47.45;98763.22;7393922;19;20007;-64
2024/04/27 01:38:24;;;;;;;3.33;1.48;;;;;;;17.09;48.02;98756.47;7393456;19;20082;-63
2024/04/27 01:40:50;;;;;;;0.63;0.63;;;;;;;16.78;49.12;98767.94;7394736;19;20010;-64
2024/04/27 01:43:17;;;;;;;0.75;0.70;;;;;;;17.49;48.19;98767.53;7394825;19;20719;-63
2024/04/27 01:45:43;;;;;;;0.90;0.90;;;;;;;17.44;48.25;98764.31;7394218;19;20466;-63
2024/04/27 01:48:09;;;;;;;2.90;1.48;;;;;;;17.01;49.56;98768.94;7396275;19;20453;-63
2024/04/27 01:50:36;;;;;;;2.30;1.25;;;;;;;17.14;49.32;98761.22;7395248;19;20015;-63
2024/04/27 01:53:02;;;;;;;1.40;0.68;;;;;;;17.41;49.00;98767.50;7392602;19;20351;-63
2024/04/27 01:55:28;;;;;;;1.02;0.85;;;;;;;17.54;48.53;98764.63;7397108;19;20022;-64
2024/04/27 01:57:54;;;;;;;1.35;1.35;;;;;;;17.04;48.96;98768.63;7391909;19;20010;-63
2024/04/27 02:00:20;;;;;;;1.33;1.23;;;;;;;17.40;48.91;98771.59;7395196;19;20006;-63
2024/04/27 02:02:46;;;;;;;4.30;1.63;;;;;;;17.64;48.31;98768.47;7393682;19;20011;-64
2024/04/27 02:05:12;;;;;;;1.73;1.63;;;;;;;17.51;48.47;98771.34;7395420;19;20359;-63
2024/04/27 02:07:38;;;;;;;1.52;1.08;;;;;;;17.37;49.24;98776.25;7393840;19;20070;-63
2024/04/27 02:10:05;;;;;;;0.98;0.93;;;;;;;17.26;48.89;98772.97;7393561;19;20358;-64
2024/04/27 02:12:31;;;;;;;1.33;1.33;;;;;;;17.24;49.27;98776.31;7395079;19;20014;-63
2024/04/27 02:14:57;;;;;;;1.38;1.27;;;;;;;17.12;49.68;98779.94;7394505;19;20007;-63
2024/04/27 02:20:08;;;;;;;2.05;1.40;;;;;;;17.32;49.54;98770.78;7393798;19;20035;-63
2024/04/27 02:22:34;;;;;;;0.63;0.63;;;;;;;17.11;49.61;98769.97;7393768;19;20011;-63
2024/04/27 02:25:00;;;;;;;1.17;0.50;;;;;;;17.27;49.15;98774.47;7391787;19;20010;-63
2024/04/27 02:27:26;;;;;;;1.30;1.13;;;;;;;17.47;48.70;98773.72;7391921;19;20017;-63
2024/04/27 02:29:53;;;;;;;0.73;0.65;;;;;;;17.62;48.95;98776.72;7393762;19;20014;-63
2024/04/27 02:32:19;;;;;;;0.65;0.65;;;;;;;16.77;50.41;98783.28;7392481;19;20014;-63
2024/04/27 02:34:45;;;;;;;3.75;2.10;;;;;;;16.78;50.24;98784.81;7392427;19;20015;-63
2024/04/27 02:37:11;;;;;;;1.25;0.95;;;;;;;17.69;49.12;98787.28;7392194;19;20015;-64
2024/04/27 02:39:37;;;;;;;1.85;1.13;;;;;;;16.64;50.41;98796.06;7391768;19;20049;-63
2024/04/27 02:42:03;;;;;;;1.40;0.63;;;;;;;17.98;48.66;98794.44;7392756;19;20151;-63
2024/04/27 02:44:29;;;;;;;0.75;0.75;;;;;;;18.12;48.54;98795.88;7395880;19;20339;-63
2024/04/27 02:46:55;;;;;;;13.90;1.58;;;;;;;17.09;50.11;98786.66;7390920;19;20014;-64
2024/04/27 02:49:21;;;;;;;1.88;0.95;;;;;;;17.96;49.22;98788.63;7392830;19;20402;-64
2024/04/27 02:51:47;;;;;;;3.08;1.50;;;;;;;17.77;49.32;98790.91;7392398;19;20007;-63
2024/04/27 02:54:13;;;;;;;0.90;0.60;;;;;;;18.07;48.93;98781.94;7396276;19;20775;-63
2024/04/27 02:56:42;;;;;;;1.42;1.33;;;;;;;17.50;49.17;98786.72;7395705;19;20039;-63
2024/04/27 02:59:09;;;;;;;4.03;1.27;;;;;;;17.93;48.35;98781.25;7392578;19;20010;-63
2024/04/27 03:01:35;;;;;;;2.33;1.60;;;;;;;16.75;49.91;98786.63;7393242;19;20030;-64
2024/04/27 03:04:01;;;;;;;5.82;1.20;;;;;;;16.68;49.87;98776.81;7394920;19;20011;-63
2024/04/27 03:06:27;;;;;;;1.50;1.15;;;;;;;15.85;51.32;98770.00;7395249;19;20011;-63
2024/04/27 03:08:53;;;;;;;2.78;2.05;;;;;;;15.47;52.67;98765.06;7391093;19;20006;-63
2024/04/27 03:11:19;;;;;;;3.38;2.47;;;;;;;14.60;54.50;98777.78;7392000;19;20015;-63
2024/04/27 03:13:45;;;;;;;1.52;0.95;;;;;;;17.04;50.32;98762.22;7391840;19;20007;-63
2024/04/27 03:16:16;;;;;;;1.15;0.93;;;;;;;16.57;50.09;98763.00;7393445;19;20014;-63
2024/04/27 03:18:42;;;;;;;1.23;0.98;;;;;;;16.42;50.30;98759.94;7390315;19;20046;-63
2024/04/27 03:21:08;;;;;;;3.25;1.15;;;;;;;16.52;50.60;98763.13;7390571;19;20018;-63
2024/04/27 03:23:38;;;;;;;0.85;0.85;;;;;;;15.72;52.48;98766.44;7391506;19;20015;-63
2024/04/27 03:26:07;;;;;;;3.42;1.13;;;;;;;15.89;52.80;98752.84;7391236;19;20015;-63
2024/04/27 03:28:33;;;;;;;0.77;0.75;;;;;;;15.33;53.64;98752.25;7392810;19;20015;-63
2024/04/27 03:31:00;;;;;;;1.65;1.55;;;;;;;15.09;55.40;98750.34;7390740;19;20014;-63
2024/04/27 03:33:26;;;;;;;0.77;0.77;;;;;;;15.28;55.04;98748.25;7391546;19;20018;-63
2024/04/27 03:35:53;;;;;;;1.25;1.00;;;;;;;14.98;56.17;98750.50;7397797;19;20010;-64
2024/04/27 03:38:19;;;;;;;2.35;1.13;;;;;;;14.83;57.37;98756.59;7395329;19;20018;-64
2024/04/27 03:40:45;;;;;;;1.63;1.13;;;;;;;15.04;57.41;98753.97;7399204;19;20486;-63
2024/04/27 03:43:11;;;;;;;1.48;1.38;;;;;;;15.61;55.35;98739.31;7398148;19;20011;-63
2024/04/27 03:45:37;;;;;;;3.25;1.60;;;;;;;15.77;55.60;98743.84;7398946;19;20015;-63
2024/04/27 03:48:03;;;;;;;6.30;1.20;;;;;;;16.30;54.27;98741.81;7398749;19;20022;-63
2024/04/27 03:50:29;;;;;;;1.92;1.50;;;;;;;16.27;53.93;98730.88;7401181;19;20018;-63
2024/04/27 03:52:56;;;;;;;2.78;2.58;;;;;;;16.39;53.74;98732.97;7397935;19;20368;-63
2024/04/27 03:55:22;;;;;;;4.28;1.60;;;;;;;16.40;53.71;98734.44;7401178;19;20397;-64
2024/04/27 03:57:49;;;;;;;5.15;1.83;;;;;;;16.48;53.10;98729.69;7394882;19;20078;-63
2024/04/27 04:00:15;;;;;;;3.45;1.70;;;;;;;16.48;52.88;98726.88;7399519;19;20015;-63
2024/04/27 04:02:41;;;;;;;1.38;1.13;;;;;;;16.51;52.66;98717.38;7398032;19;20432;-63
2024/04/27 04:05:07;;;;;;;8.88;1.27;;;;;;;16.57;52.35;98715.19;7399451;19;20014;-63
2024/04/27 04:07:33;;;;;;;5.80;1.55;;;;;;;16.68;52.15;98723.41;7397604;19;20071;-63
2024/04/27 04:09:59;;;;;;;2.30;1.10;;;;;;;16.32;52.49;98716.75;7397458;19;20478;-63
2024/04/27 04:12:26;;;;;;;1.35;1.23;;;;;;;17.25;50.28;98720.78;7397189;19;20014;-63
2024/04/27 04:14:52;;;;;;;2.10;1.00;;;;;;;16.68;51.32;98714.19;7398695;19;20022;-63
2024/04/27 04:17:18;;;;;;;0.90;0.90;;;;;;;16.75;51.48;98707.91;7395539;19;20581;-63
2024/04/27 04:19:44;;;;;;;2.97;2.33;;;;;;;16.82;51.58;98717.72;7396644;19;20458;-63
2024/04/27 04:22:11;;;;;;;1.27;0.95;;;;;;;16.97;51.34;98712.25;7399128;19;20400;-63
2024/04/27 04:24:37;;;;;;;4.65;2.35;;;;;;;16.66;52.67;98716.81;7397164;19;20014;-63
2024/04/27 04:27:03;;;;;;;4.43;1.33;;;;;;;16.77;52.56;98715.78;7395045;19;20045;-63
2024/04/27 04:29:30;;;;;;;4.95;1.08;;;;;;;16.79;52.93;98716.00;7397507;19;20100;-63
2024/04/27 04:31:56;;;;;;;2.15;1.50;;;;;;;17.13;52.89;98725.19;7397983;19;20030;-63
2024/04/27 04:34:22;;;;;;;3.55;2.10;;;;;;;17.92;52.01;98719.84;7397114;19;20006;-64
2024/04/27 04:36:48;;;;;;;1.35;1.25;;;;;;;18.19;51.20;98721.16;7396335;19;20022;-63
2024/04/27 04:39:14;;;;;;;6.47;2.10;;;;;;;18.40;50.41;98718.25;7397175;19;20007;-63
2024/04/27 04:41:41;;;;;;;3.70;1.27;;;;;;;18.70;50.61;98719.16;7396986;19;20015;-63
2024/04/27 04:44:08;;;;;;;2.20;1.05;;;;;;;19.49;48.57;98724.56;7398769;19;20011;-63
2024/04/27 04:46:34;;;;;;;2.25;1.40;;;;;;;18.27;50.53;98721.94;7398615;19;20046;-63
2024/04/27 04:49:00;;;;;;;3.30;0.80;;;;;;;17.41;52.53;98716.81;7395493;19;20016;-63
2024/04/27 04:51:26;;;;;;;8.23;2.28;;;;;;;17.09;53.16;98719.88;7396165;19;20010;-63
2024/04/27 04:53:52;;;;;;;4.57;1.40;;;;;;;16.59;55.19;98709.78;7395855;19;20015;-63
2024/04/27 04:56:18;;;;;;;6.38;1.08;;;;;;;16.62;55.27;98717.16;7399657;19;20014;-63
2024/04/27 04:58:45;;;;;;;4.05;1.67;;;;;;;17.10;54.76;98720.66;7394391;19;20010;-66
2024/04/27 05:01:12;;;;;;;0.82;0.82;;;;;;;17.74;53.38;98715.97;7395406;19;20010;-63
2024/04/27 05:03:38;;;;;;;2.75;1.73;;;;;;;17.42;53.38;98713.44;7394831;19;20015;-64
2024/04/27 05:06:08;;;;;;;3.78;2.10;;;;;;;16.52;55.92;98718.16;7397315;19;20023;-63
2024/04/27 05:08:34;;;;;;;14.20;2.03;;;;;;;17.02;55.34;98714.19;7399107;19;20018;-63
2024/04/27 05:11:01;;;;;;;0.85;0.65;;;;;;;17.25;54.72;98717.97;7396252;19;20015;-63
2024/04/27 05:13:27;;;;;;;6.28;2.03;;;;;;;17.63;54.16;98726.78;7395235;19;20010;-64
2024/04/27 05:15:53;;;;;;;3.65;1.65;;;;;;;17.34;54.73;98723.13;7393581;19;20036;-64
2024/04/27 05:18:20;;;;;;;1.17;1.15;;;;;;;17.10;55.40;98724.22;7396135;19;20015;-63
2024/04/27 05:20:48;;;;;;;7.32;1.83;;;;;;;17.43;54.36;98728.28;7395783;19;20341;-63
2024/04/27 05:23:14;;;;;;;4.07;1.50;;;;;;;17.89;53.30;98724.53;7394567;19;20023;-64
2024/04/27 05:25:40;;;;;;;4.93;2.50;;;;;;;17.78;53.35;98726.91;7394144;19;20017;-64
2024/04/27 05:28:07;;;;;;;1.35;1.15;;;;;;;17.77;53.70;98728.97;7394847;19;20015;-64
2024/04/27 05:30:33;;;;;;;1.45;1.05;;;;;;;17.91;53.69;98733.16;7395802;19;20029;-64
2024/04/27 05:32:59;;;;;;;2.20;1.40;;;;;;;17.88;53.44;98730.72;7394857;19;20017;-64
2024/04/27 05:35:25;;;;;;;8.30;1.83;;;;;;;18.10;53.76;98732.94;7396819;19;20337;-64
2024/04/27 05:37:51;;;;;;;7.07;2.40;;;;;;;18.02;53.81;98729.28;7393368;19;20007;-64
2024/04/27 05:40:17;;;;;;;7.15;2.50;;;;;;;18.10;54.12;98735.75;7393089;19;20465;-64
2024/04/27 05:42:44;;;;;;;8.57;1.67;;;;;;;18.25;53.45;98740.72;7397763;19;20013;-64
2024/04/27 05:45:10;;;;;;;3.42;1.63;;;;;;;18.45;52.51;98746.28;7394405;19;20026;-64
2024/04/27 05:47:36;;;;;;;6.88;2.05;;;;;;;18.40;52.37;98740.78;7394415;19;20627;-64
2024/04/27 05:50:04;;;;;;;5.35;3.08;;;;;;;18.67;52.68;98742.06;7394682;19;20075;-64
2024/04/27 05:52:31;;;;;;;4.57;1.55;;;;;;;18.55;52.81;98750.09;7392096;19;20039;-64
2024/04/27 05:54:57;;;;;;;3.20;1.60;;;;;;;18.51;52.61;98740.50;7396348;19;20007;-64
2024/04/27 05:57:23;;;;;;;5.63;2.65;;;;;;;19.95;50.54;98736.63;7396819;19;20031;-64
2024/04/27 05:59:49;;;;;;;5.05;2.30;;;;;;;18.89;52.00;98747.03;7396457;19;20030;-65
2024/04/27 06:02:16;;;;;;;7.03;1.88;;;;;;;19.06;52.60;98741.63;7398136;19;20015;-64
2024/04/27 06:04:42;;;;;;;8.30;1.80;;;;;;;19.95;51.04;98747.16;7393814;19;20015;-64
2024/04/27 06:07:08;;;;;;;1.88;1.58;;;;;;;19.09;51.92;98743.31;7396749;19;20038;-64
2024/04/27 06:09:34;;;;;;;2.75;1.83;;;;;;;18.77;52.93;98740.22;7394270;19;20010;-64
2024/04/27 06:12:00;;;;;;;2.40;1.63;;;;;;;19.23;51.37;98755.94;7393730;19;20130;-64
2024/04/27 06:14:26;;;;;;;3.35;1.90;;;;;;;18.68;52.53;98749.22;7393697;19;20022;-64
2024/04/27 06:16:52;;;;;;;2.78;2.13;;;;;;;18.44;52.73;98747.63;7390952;19;20066;-64
2024/04/27 06:19:18;;;;;;;2.35;2.13;;;;;;;17.86;53.46;98744.59;7396264;19;20014;-64
2024/04/27 06:21:44;;;;;;;4.90;2.72;;;;;;;17.86;53.57;98753.81;7392497;19;20011;-64
2024/04/27 06:24:10;;;;;;;3.25;2.00;;;;;;;17.87;54.24;98757.38;7392796;19;20010;-64
2024/04/27 06:26:36;;;;;;;2.80;2.25;;;;;;;18.86;52.39;98751.72;7392879;19;20466;-64
2024/04/27 06:29:04;;;;;;;6.10;2.75;;;;;;;19.17;51.38;98761.03;7393685;19;20011;-64
2024/04/27 06:31:30;;;;;;;4.25;2.10;;;;;;;19.13;51.48;98754.25;7396884;19;20022;-64
2024/04/27 06:33:56;;;;;;;1.85;1.35;;;;;;;20.05;49.99;98750.94;7391589;19;20022;-64
2024/04/27 06:36:22;;;;;;;3.40;0.73;;;;;;;19.32;50.89;98754.66;7395629;19;20076;-64
2024/04/27 06:38:48;;;;;;;2.13;1.15;;;;;;;19.94;50.14;98742.84;7392083;19;20074;-64
2024/04/27 06:41:14;;;;;;;3.40;1.40;;;;;;;21.10;47.59;98739.28;7392691;19;20022;-64
2024/04/27 06:43:40;;;;;;;6.05;2.20;;;;;;;20.16;48.62;98751.28;7395191;19;20542;-64
2024/04/27 06:46:06;;;;;;;5.35;2.13;;;;;;;20.31;49.12;98744.88;7392282;19;20014;-64
2024/04/27 06:48:32;;;;;;;2.58;1.88;;;;;;;19.17;50.58;98749.72;7393068;19;20248;-56
2024/04/27 06:50:58;;;;;;;12.25;1.55;;;;;;;19.48;50.56;98756.97;7393644;19;20046;-56
2024/04/27 06:53:24;;;;;;;2.80;1.52;;;;;;;18.60;51.97;98762.53;7390549;19;20022;-56
2024/04/27 06:55:50;;;;;;;2.20;1.60;;;;;;;18.46;52.43;98752.69;7396506;19;20015;-56
2024/04/27 06:58:17;;;;;;;2.55;1.27;;;;;;;18.95;51.78;98767.34;7390327;19;20007;-56
2024/04/27 07:00:43;;;;;;;3.15;1.95;;;;;;;20.06;50.04;98758.06;7392223;19;20014;-56
2024/04/27 07:03:09;;;;;;;5.20;1.60;;;;;;;20.10;49.50;98759.19;7392843;19;20010;-56
2024/04/27 07:05:35;;;;;;;6.22;1.88;;;;;;;20.46;49.03;98764.63;7394246;19;20022;-56
2024/04/27 07:08:01;;;;;;;2.30;1.70;;;;;;;18.86;51.54;98767.91;7394897;19;20011;-56
2024/04/27 07:10:27;;;;;;;12.20;1.60;;;;;;;18.79;51.71;98774.28;7389678;19;20014;-56
2024/04/27 07:12:53;;;;;;;3.25;1.95;;;;;;;19.36;50.77;98778.41;7391107;19;20031;-57
2024/04/27 07:15:19;;;;;;;2.83;1.48;;;;;;;19.07;50.63;98771.38;7391781;19;20014;-56
2024/04/27 07:17:45;;;;;;;2.95;1.30;;;;;;;20.00;49.92;98777.31;7392265;19;20034;-56
2024/04/27 07:20:11;;;;;;;5.03;2.83;;;;;;;20.43;49.04;98771.41;7390422;19;20007;-56
2024/04/27 07:22:38;;;;;;;2.88;1.70;;;;;;;20.02;49.20;98781.06;7392191;19;20021;-56
2024/04/27 07:25:05;;;;;;;4.13;1.33;;;;;;;18.87;51.44;98783.50;7391031;19;20015;-56
2024/04/27 07:27:31;;;;;;;2.15;1.23;;;;;;;19.66;50.21;98775.59;7389582;19;20011;-56
2024/04/27 07:29:57;;;;;;;1.38;1.15;;;;;;;20.05;49.33;98768.66;7391154;19;20489;-56
2024/04/27 07:32:23;;;;;;;3.85;1.73;;;;;;;20.83;48.33;98772.22;7390845;19;20014;-56
2024/04/27 07:34:49;;;;;;;1.60;1.50;;;;;;;21.82;47.46;98769.53;7391382;19;20106;-56
2024/04/27 07:37:15;;;;;;;7.63;3.25;;;;;;;20.73;48.83;98765.66;7390311;19;20011;-56
2024/04/27 07:39:41;;;;;;;4.38;1.73;;;;;;;20.40;49.16;98781.03;7390603;19;20770;-56
2024/04/27 07:42:07;;;;;;;9.02;2.58;;;;;;;20.28;49.37;98775.03;7394248;19;20036;-56
2024/04/27 07:44:33;;;;;;;1.65;1.10;;;;;;;19.27;50.81;98793.06;7389441;19;20017;-56
2024/04/27 07:47:00;;;;;;;8.45;1.85;;;;;;;20.22;49.55;98785.03;7390835;19;20067;-56
2024/04/27 07:49:26;;;;;;;4.97;1.92;;;;;;;20.88;47.59;98779.75;7389162;19;20048;-56
2024/04/27 07:51:52;;;;;;;3.25;2.25;;;;;;;21.82;46.25;98772.38;7393090;19;20010;-56
2024/04/27 07:54:18;;;;;;;2.38;1.90;;;;;;;21.49;46.05;98768.09;7391241;19;20007;-56
2024/04/27 07:56:44;;;;;;;1.42;1.35;;;;;;;21.56;46.22;98775.78;7391486;19;20014;-56
2024/04/27 07:59:10;;;;;;;8.55;3.10;;;;;;;21.81;45.58;98771.63;7390480;19;20078;-56
2024/04/27 08:01:36;;;;;;;4.55;2.42;;;;;;;23.12;44.11;98770.44;7391384;19;20010;-56
2024/04/27 08:04:02;;;;;;;3.58;1.20;;;;;;;22.39;44.79;98767.31;7390157;19;20011;-56
2024/04/27 08:06:28;;;;;;;6.90;2.45;;;;;;;23.25;43.61;98775.75;7396000;19;20025;-56
2024/04/27 08:08:54;;;;;;;3.28;1.88;;;;;;;23.07;43.44;98788.50;7389006;19;20035;-56
2024/04/27 08:11:20;;;;;;;5.05;2.20;;;;;;;22.61;43.62;98789.03;7390805;19;20066;-56
2024/04/27 08:13:48;;;;;;;4.40;1.98;;;;;;;23.02;43.44;98787.41;7390557;19;20042;-56
2024/04/27 08:16:15;;;;;;;6.97;2.75;;;;;;;22.68;43.54;98787.47;7390962;19;20033;-56
2024/04/27 08:18:41;;;;;;;0.85;0.82;;;;;;;22.75;43.74;98791.53;7388493;19;20010;-56
2024/04/27 08:21:07;;;;;;;2.33;1.25;;;;;;;23.27;42.73;98787.28;7390889;19;20031;-56
2024/04/27 08:23:33;;;;;;;3.72;1.92;;;;;;;23.51;42.56;98785.63;7399969;19;20463;-56
2024/04/27 08:26:00;;;;;;;1.60;1.45;;;;;;;23.20;41.81;98783.19;7397151;19;20026;-56
2024/04/27 08:28:26;;;;;;;2.50;1.23;;;;;;;22.33;43.17;98781.00;7396969;19;20010;-56
2024/04/27 08:30:52;;;;;;;4.85;1.55;;;;;;;22.85;42.41;98783.88;7396513;19;20025;-56
2024/04/27 08:33:18;;;;;;;2.15;1.73;;;;;;;21.44;43.86;98783.25;7401814;19;20018;-56
2024/04/27 08:35:44;;;;;;;2.85;1.95;;;;;;;22.19;43.59;98782.66;7397950;19;20021;-56
2024/04/27 08:38:10;;;;;;;2.28;1.58;;;;;;;21.30;44.58;98782.00;7395964;19;20014;-56
2024/04/27 08:40:36;;;;;;;1.27;1.15;;;;;;;21.70;44.36;98779.84;7396888;19;20011;-56
2024/04/27 08:43:02;;;;;;;1.95;1.30;;;;;;;20.52;46.06;98782.13;7398647;19;20093;-56
2024/04/27 08:45:30;;;;;;;3.67;2.40;;;;;;;20.34;46.58;98788.97;7396365;19;20006;-56
2024/04/27 08:47:57;;;;;;;1.90;1.02;;;;;;;20.61;46.47;98778.72;7395526;19;20014;-56
2024/04/27 08:50:26;;;;;;;3.85;1.63;;;;;;;22.28;44.65;98779.19;7397375;19;20038;-56
2024/04/27 08:52:52;;;;;;;1.60;1.48;;;;;;;22.01;44.54;98777.53;7394419;19;20459;-56
2024/04/27 08:55:19;;;;;;;1.67;1.45;;;;;;;22.69;43.88;98779.69;7400592;19;20011;-56
2024/04/27 08:57:46;;;;;;;1.73;1.38;;;;;;;22.71;43.13;98780.63;7395047;19;20087;-56
2024/04/27 09:00:12;;;;;;;2.00;1.90;;;;;;;22.13;43.44;98779.31;7395768;19;20018;-56
2024/04/27 09:02:38;;;;;;;2.63;1.60;;;;;;;22.47;42.78;98779.34;7394126;19;20011;-56
2024/04/27 09:05:05;;;;;;;2.00;1.42;;;;;;;22.79;42.71;98791.88;7398335;19;20066;-56
2024/04/27 09:07:31;;;;;;;1.08;1.08;;;;;;;22.61;42.82;98780.53;7396429;19;20006;-56
2024/04/27 09:09:57;;;;;;;1.73;1.05;;;;;;;22.06;43.26;98773.72;7396768;19;20015;-56
2024/04/27 09:12:23;;;;;;;1.85;1.20;;;;;;;21.83;44.40;98773.91;7395412;19;20014;-56
2024/04/27 09:14:49;;;;;;;1.98;1.73;;;;;;;21.44;44.73;98777.59;7395687;19;20446;-56
2024/04/27 09:17:15;;;;;;;2.63;1.33;;;;;;;21.21;44.74;98782.63;7397644;19;20014;-56
2024/04/27 09:19:41;;;;;;;0.85;0.85;;;;;;;21.66;44.35;98774.56;7396502;19;20018;-56
2024/04/27 09:22:07;;;;;;;4.00;1.60;;;;;;;22.18;43.59;98777.56;7393077;19;20014;-56
2024/04/27 09:24:34;;;;;;;1.63;1.05;;;;;;;21.53;43.94;98780.53;7396057;19;20018;-56
2024/04/27 09:27:02;;;;;;;2.53;1.65;;;;;;;21.74;43.61;98777.38;7394934;19;20074;-56
2024/04/27 09:29:28;;;;;;;1.73;1.48;;;;;;;22.15;43.46;98782.31;7398548;19;20037;-56
2024/04/27 09:31:55;;;;;;;1.35;1.25;;;;;;;22.61;42.89;98774.84;7395150;19;20068;-56
2024/04/27 09:34:21;;;;;;;2.75;1.83;;;;;;;22.58;42.76;98778.84;7393782;19;20636;-56
2024/04/27 09:36:48;;;;;;;0.85;0.70;;;;;;;22.71;42.89;98779.84;7392973;19;20006;-56
2024/04/27 09:39:33;;;;;;;3.28;1.65;;;;;;;21.40;43.83;98785.72;7394521;19;20010;-56
2024/04/27 09:42:04;;;;;;;1.08;0.98;;;;;;;22.17;42.50;98785.34;7397856;19;20037;-55
2024/04/27 09:44:41;;;;;;;1.90;1.05;;;;;;;22.17;42.48;98784.56;7395507;19;20014;-55
2024/04/27 09:47:10;;;;;;;4.28;1.60;;;;;;;21.47;42.81;98782.84;7395320;19;20010;-55
2024/04/27 09:49:54;;;;;;;1.58;1.15;;;;;;;21.91;43.31;98780.28;7394736;19;20090;-55
2024/04/27 09:52:24;;;;;;;6.53;1.77;;;;;;;22.09;42.55;98776.13;7398329;19;20034;-55
2024/04/27 09:54:51;;;;;;;2.50;0.88;;;;;;;22.19;42.45;98770.56;7394565;19;20006;-55
2024/04/27 09:57:18;;;;;;;2.47;1.63;;;;;;;21.53;42.85;98774.09;7394225;19;20022;-55
2024/04/27 09:59:44;;;;;;;3.22;0.80;;;;;;;21.58;43.18;98775.97;7391469;19;20488;-55
2024/04/27 10:02:18;;;;;;;2.78;1.42;;;;;;;21.68;43.33;98776.81;7398011;19;20098;-56
2024/04/27 10:04:45;;;;;;;2.40;1.52;;;;;;;23.14;42.13;98770.59;7386188;19;20376;-84
2024/04/27 10:07:11;;;;;;;0.88;0.85;;;;;;;23.12;41.57;98767.59;7385030;19;20422;-83
2024/04/27 10:09:40;;;;;;;0.80;0.75;;;;;;;22.55;41.71;98771.50;7390037;19;20105;-84
2024/04/27 10:12:19;;;;;;;1.30;1.15;;;;;;;21.70;42.78;98763.59;7390366;19;20018;-87
2024/04/27 10:14:50;;;;;;;0.60;0.60;;;;;;;20.97;43.88;98770.66;7388436;19;20014;-81
2024/04/27 10:17:17;;;;;;;1.75;0.88;;;;;;;21.02;43.90;98769.69;7389522;19;20469;-81
2024/04/27 10:19:46;;;;;;;1.35;0.95;;;;;;;22.56;42.17;98764.50;7387265;19;20011;-83
2024/04/27 10:22:28;;;;;;;1.20;0.85;;;;;;;23.19;41.13;98763.91;7391403;19;20098;-81
2024/04/27 10:25:11;;;;;;;1.48;1.08;;;;;;;23.24;40.50;98768.56;7387739;19;20018;-82
2024/04/27 10:27:37;;;;;;;3.85;1.20;;;;;;;23.55;40.84;98760.38;7388415;19;20292;-81
2024/04/27 10:30:17;;;;;;;1.50;0.95;;;;;;;24.24;40.02;98755.03;7387789;19;20096;-82
2024/04/27 10:33:04;;;;;;;1.48;0.82;;;;;;;24.35;39.56;98746.69;7391241;19;20081;-82
2024/04/27 10:35:30;;;;;;;2.50;1.15;;;;;;;23.87;38.69;98749.41;7390239;19;20039;-82
2024/04/27 10:37:57;;;;;;;5.55;0.88;;;;;;;24.30;38.51;98749.84;7386744;19;20480;-82
2024/04/27 10:40:24;;;;;;;0.60;0.60;;;;;;;25.22;37.84;98745.28;7387532;19;20033;-81
2024/04/27 10:42:51;;;;;;;1.48;1.02;;;;;;;26.75;36.21;98743.69;7390233;19;20011;-81
2024/04/27 10:45:17;;;;;;;0.52;0.52;;;;;;;27.20;35.10;98753.78;7387655;19;20048;-82
2024/04/27 10:47:44;;;;;;;1.27;0.88;;;;;;;25.49;36.79;98745.81;7389787;19;20014;-81
2024/04/27 10:50:13;;;;;;;1.90;1.35;;;;;;;25.74;36.38;98747.50;7388149;19;20010;-80
2024/04/27 10:52:43;;;;;;;3.67;1.05;;;;;;;26.01;36.42;98747.97;7389634;19;20022;-80
2024/04/27 10:55:10;;;;;;;0.95;0.80;;;;;;;26.65;36.02;98745.88;7389949;19;20084;-80
2024/04/27 10:57:36;;;;;;;1.08;0.82;;;;;;;27.15;34.95;98751.28;7384431;19;20022;-83
2024/04/27 11:00:04;;;;;;;0.47;0.30;;;;;;;26.18;35.56;98744.88;7390860;19;20345;-82
2024/04/27 11:02:31;;;;;;;1.48;0.30;;;;;;;26.17;35.26;98749.09;7390870;19;20465;-83
2024/04/27 11:05:00;;;;;;;1.90;1.13;;;;;;;26.21;35.16;98732.22;7390067;19;20021;-80
2024/04/27 11:07:31;;;;;;;1.92;0.90;;;;;;;26.18;35.52;98739.91;7388573;19;20070;-80
2024/04/27 11:09:58;;;;;;;1.05;1.05;;;;;;;27.02;35.69;98739.09;7390267;19;20019;-82
2024/04/27 11:12:24;;;;;;;0.95;0.55;;;;;;;27.66;35.06;98744.53;7386684;19;20385;-79
2024/04/27 11:14:51;;;;;;;1.10;0.75;;;;;;;31.33;31.95;98728.91;7391901;19;20481;-81
2024/04/27 11:17:18;;;;;;;1.02;0.68;;;;;;;27.84;33.90;98739.94;7388009;19;20381;-79
2024/04/27 11:19:45;;;;;;;1.20;1.05;;;;;;;27.07;35.17;98748.66;7390662;19;20365;-79
2024/04/27 11:22:11;;;;;;;3.50;1.50;;;;;;;27.30;34.88;98745.09;7388367;19;20469;-83
2024/04/27 11:24:37;;;;;;;1.48;1.05;;;;;;;26.60;35.59;98738.38;7391891;19;20022;-82
2024/04/27 11:27:03;;;;;;;1.42;0.98;;;;;;;26.71;34.14;98746.25;7388624;19;20010;-81
2024/04/27 11:29:29;;;;;;;1.38;1.00;;;;;;;26.45;34.76;98745.28;7389851;19;20092;-80
2024/04/27 11:31:55;;;;;;;3.00;0.65;;;;;;;27.37;34.16;98744.16;7381534;19;20031;-87
2024/04/27 11:34:21;;;;;;;3.65;1.23;;;;;;;28.20;33.79;98736.44;7382099;19;20011;-81